Time;durP1;ratioP1;P1;durP2;ratioP2;P2;SDS_P1;SDS_P2;PMS_P1;PMS_P2;Temp;Humidity;BMP_temperature;BMP_pressure;BME280_temperature;BME280_humidity;BME280_pressure;Samples;Min_cycle;Max_cycle;Signal;HPM_P1;HPM_P2
2022/03/22 00:01:50;;;;;;;33.95;10.15;;;;;;;;;;4991838;28;20026;-45
2022/03/22 00:04:18;;;;;;;40.13;11.45;;;;;;;;;;4990598;28;20026;-45
2022/03/22 00:06:45;;;;;;;28.08;10.55;;;;;;;;;;4974146;28;20030;-45
2022/03/22 00:09:12;;;;;;;37.85;11.40;;;;;;;;;;4990858;28;20460;-44
2022/03/22 00:11:39;;;;;;;33.35;11.55;;;;;;;;;;4990900;28;20489;-49
2022/03/22 00:14:08;;;;;;;37.78;10.40;;;;;;;;;;5001446;28;20487;-46
2022/03/22 00:16:36;;;;;;;33.47;10.27;;;;;;;;;;4996980;28;20056;-46
2022/03/22 00:19:03;;;;;;;36.60;10.15;;;;;;;;;;4975328;28;20116;-46
2022/03/22 00:21:30;;;;;;;28.70;9.07;;;;;;;;;;4993907;28;20026;-45
2022/03/22 00:23:57;;;;;;;28.42;9.90;;;;;;;;;;4993192;28;20076;-46
2022/03/22 00:26:24;;;;;;;26.35;8.25;;;;;;;;;;4993098;28;20026;-50
2022/03/22 00:28:51;;;;;;;23.40;8.30;;;;;;;;;;4998733;28;20026;-45
2022/03/22 00:31:18;;;;;;;26.55;9.27;;;;;;;;;;5008529;28;20083;-46
2022/03/22 00:33:45;;;;;;;29.70;8.90;;;;;;;;;;5007985;28;20488;-46
2022/03/22 00:36:13;;;;;;;22.58;8.57;;;;;;;;;;5008563;28;20041;-46
2022/03/22 00:38:40;;;;;;;21.15;7.85;;;;;;;;;;5008755;28;20053;-47
2022/03/22 00:41:07;;;;;;;22.60;7.63;;;;;;;;;;5007956;28;20018;-45
2022/03/22 00:43:34;;;;;;;21.65;7.07;;;;;;;;;;5008658;28;20037;-47
2022/03/22 00:46:02;;;;;;;19.95;7.82;;;;;;;;;;5008091;28;20117;-45
2022/03/22 00:48:29;;;;;;;22.33;7.40;;;;;;;;;;5008234;28;20030;-49
2022/03/22 00:50:56;;;;;;;25.88;7.90;;;;;;;;;;5008322;28;20065;-46
2022/03/22 00:53:23;;;;;;;23.42;7.38;;;;;;;;;;5008195;28;20041;-48
2022/03/22 00:55:50;;;;;;;27.58;7.07;;;;;;;;;;5002061;28;20037;-47
2022/03/22 00:58:17;;;;;;;27.60;7.43;;;;;;;;;;5001208;28;20593;-46
2022/03/22 01:00:45;;;;;;;21.20;6.40;;;;;;;;;;5001991;28;20026;-47
2022/03/22 01:03:12;;;;;;;21.85;7.38;;;;;;;;;;5009404;28;20066;-47
2022/03/22 01:05:39;;;;;;;21.85;7.00;;;;;;;;;;5011676;28;20030;-45
2022/03/22 01:08:07;;;;;;;22.55;6.55;;;;;;;;;;5006257;28;20026;-47
2022/03/22 01:10:36;;;;;;;23.58;6.40;;;;;;;;;;4994812;28;20030;-45
2022/03/22 01:13:04;;;;;;;25.35;7.28;;;;;;;;;;4997073;28;20057;-47
2022/03/22 01:15:35;;;;;;;19.27;5.80;;;;;;;;;;5001914;28;20076;-48
2022/03/22 01:18:06;;;;;;;23.08;6.57;;;;;;;;;;4999146;28;20048;-45
2022/03/22 01:20:34;;;;;;;18.75;6.60;;;;;;;;;;4996965;28;20034;-47
2022/03/22 01:23:02;;;;;;;24.85;6.10;;;;;;;;;;4993756;28;20113;-46
2022/03/22 01:25:30;;;;;;;16.02;6.32;;;;;;;;;;4992138;28;20052;-46
2022/03/22 01:27:58;;;;;;;26.92;6.05;;;;;;;;;;4993355;28;20039;-45
2022/03/22 01:30:25;;;;;;;26.13;6.63;;;;;;;;;;4993448;28;20058;-45
2022/03/22 01:32:53;;;;;;;27.92;6.55;;;;;;;;;;4993618;28;20034;-46
2022/03/22 01:35:28;;;;;;;18.92;4.97;;;;;;;;;;4993498;28;20381;-45
2022/03/22 01:37:56;;;;;;;16.75;6.22;;;;;;;;;;4993253;28;20050;-46
2022/03/22 01:40:24;;;;;;;20.48;5.47;;;;;;;;;;4993401;28;20027;-46
2022/03/22 01:42:53;;;;;;;17.65;5.30;;;;;;;;;;4993676;28;20492;-45
2022/03/22 01:45:20;;;;;;;18.73;5.45;;;;;;;;;;4992868;28;20485;-46
2022/03/22 01:47:47;;;;;;;15.93;5.32;;;;;;;;;;4993474;28;20037;-48
2022/03/22 01:50:15;;;;;;;23.15;6.05;;;;;;;;;;4993110;28;20361;-45
2022/03/22 01:52:43;;;;;;;21.15;5.55;;;;;;;;;;4993727;28;20085;-45
2022/03/22 01:55:15;;;;;;;20.58;5.18;;;;;;;;;;4993069;28;20037;-48
2022/03/22 01:57:42;;;;;;;14.02;4.97;;;;;;;;;;4993085;28;20113;-46
2022/03/22 02:00:13;;;;;;;14.93;4.95;;;;;;;;;;4994346;28;20101;-45
2022/03/22 02:08:13;;;;;;;12.07;4.60;;;;;;;;;;4993298;28;20049;-46
2022/03/22 02:10:43;;;;;;;14.27;4.75;;;;;;;;;;4993191;28;20034;-45
2022/03/22 02:13:11;;;;;;;12.45;4.03;;;;;;;;;;4993603;28;20500;-46
2022/03/22 02:15:38;;;;;;;16.92;4.85;;;;;;;;;;4993380;28;20066;-45
2022/03/22 02:18:08;;;;;;;12.45;4.47;;;;;;;;;;4992838;28;20559;-47
2022/03/22 02:20:37;;;;;;;10.68;4.28;;;;;;;;;;4993416;28;20018;-46
2022/03/22 02:23:14;;;;;;;12.25;4.50;;;;;;;;;;4975203;28;20030;-46
2022/03/22 02:25:41;;;;;;;14.75;4.70;;;;;;;;;;4992858;28;20037;-47
2022/03/22 02:28:11;;;;;;;11.25;4.32;;;;;;;;;;4993202;28;20030;-47
2022/03/22 02:30:39;;;;;;;10.57;4.18;;;;;;;;;;4992048;28;20054;-47
2022/03/22 02:33:06;;;;;;;12.48;4.30;;;;;;;;;;4992163;28;20584;-45
2022/03/22 02:35:36;;;;;;;13.75;4.20;;;;;;;;;;4993198;28;20027;-46
2022/03/22 02:38:04;;;;;;;13.18;4.32;;;;;;;;;;4974658;28;20551;-46
2022/03/22 02:40:31;;;;;;;12.55;4.22;;;;;;;;;;4992107;28;20519;-48
2022/03/22 02:43:00;;;;;;;11.75;4.28;;;;;;;;;;4993023;28;20046;-46
2022/03/22 02:45:27;;;;;;;8.48;4.05;;;;;;;;;;4992500;28;20031;-48
2022/03/22 02:47:54;;;;;;;10.85;3.92;;;;;;;;;;4992384;28;20374;-46
2022/03/22 02:50:21;;;;;;;11.68;3.95;;;;;;;;;;4975542;28;20543;-47
2022/03/22 02:52:49;;;;;;;15.35;4.05;;;;;;;;;;4992283;28;20489;-46
2022/03/22 02:55:16;;;;;;;13.07;3.85;;;;;;;;;;4992529;28;20070;-47
2022/03/22 02:57:43;;;;;;;9.38;3.30;;;;;;;;;;4992198;28;20041;-47
2022/03/22 03:00:11;;;;;;;9.05;3.20;;;;;;;;;;4992999;28;20026;-47
2022/03/22 03:02:43;;;;;;;7.30;3.42;;;;;;;;;;4994057;28;20045;-46
2022/03/22 03:05:10;;;;;;;8.52;3.72;;;;;;;;;;4993135;28;20749;-47
2022/03/22 03:07:38;;;;;;;9.02;3.80;;;;;;;;;;4992010;28;20480;-45
2022/03/22 03:10:05;;;;;;;9.02;3.58;;;;;;;;;;4992841;28;20095;-45
2022/03/22 03:12:32;;;;;;;8.55;3.40;;;;;;;;;;4992451;28;20034;-46
2022/03/22 03:14:59;;;;;;;8.13;3.22;;;;;;;;;;4992249;28;20406;-46
2022/03/22 03:17:26;;;;;;;8.45;3.53;;;;;;;;;;4991710;28;20424;-47
2022/03/22 03:19:53;;;;;;;9.48;2.97;;;;;;;;;;4992822;28;20033;-46
2022/03/22 03:22:20;;;;;;;7.68;2.63;;;;;;;;;;4991937;28;20105;-45
2022/03/22 03:24:47;;;;;;;8.23;3.03;;;;;;;;;;4992721;28;20026;-46
2022/03/22 03:27:15;;;;;;;6.13;3.38;;;;;;;;;;4991814;28;20029;-45
2022/03/22 03:29:42;;;;;;;10.68;3.00;;;;;;;;;;4992273;28;20054;-46
2022/03/22 03:32:09;;;;;;;6.70;2.90;;;;;;;;;;4992126;28;20027;-47
2022/03/22 03:34:37;;;;;;;8.15;3.33;;;;;;;;;;4992615;28;20429;-46
2022/03/22 03:37:04;;;;;;;9.25;3.47;;;;;;;;;;4992026;28;20058;-46
2022/03/22 03:39:31;;;;;;;8.80;3.03;;;;;;;;;;4992230;28;20049;-47
2022/03/22 03:41:59;;;;;;;8.52;2.53;;;;;;;;;;4991892;28;20062;-46
2022/03/22 03:47:12;;;;;;;8.10;3.45;;;;;;;;;;4991792;28;20073;-46
2022/03/22 03:49:42;;;;;;;10.38;2.97;;;;;;;;;;4995314;28;20029;-45
2022/03/22 03:52:11;;;;;;;6.45;2.83;;;;;;;;;;4995635;28;20026;-45
2022/03/22 03:54:39;;;;;;;9.02;2.97;;;;;;;;;;4996136;28;20030;-45
2022/03/22 03:57:06;;;;;;;9.43;2.85;;;;;;;;;;4995839;28;20030;-47
2022/03/22 03:59:37;;;;;;;7.95;2.78;;;;;;;;;;4995471;28;20449;-46
2022/03/22 04:02:06;;;;;;;8.95;3.17;;;;;;;;;;4995022;28;20109;-46
2022/03/22 04:04:35;;;;;;;7.30;2.60;;;;;;;;;;4995180;28;20060;-45
2022/03/22 04:07:02;;;;;;;6.70;2.72;;;;;;;;;;4995629;28;20034;-47
2022/03/22 04:09:29;;;;;;;5.50;2.35;;;;;;;;;;4995048;28;20023;-45
2022/03/22 04:11:56;;;;;;;4.85;2.20;;;;;;;;;;4995755;28;20034;-46
2022/03/22 04:14:23;;;;;;;6.72;2.67;;;;;;;;;;4995044;28;20027;-46
2022/03/22 04:16:50;;;;;;;5.43;2.40;;;;;;;;;;4995495;28;20054;-46
2022/03/22 04:19:18;;;;;;;5.40;2.30;;;;;;;;;;4995773;28;20029;-45
2022/03/22 04:21:46;;;;;;;7.07;2.40;;;;;;;;;;4994954;28;20121;-46
2022/03/22 04:24:13;;;;;;;6.63;2.50;;;;;;;;;;4995090;28;20074;-46
2022/03/22 04:26:41;;;;;;;4.95;2.10;;;;;;;;;;4994835;28;20378;-45
2022/03/22 04:34:40;;;;;;;5.47;2.53;;;;;;;;;;4995375;28;20053;-46
2022/03/22 04:37:08;;;;;;;4.68;2.28;;;;;;;;;;4994485;28;20121;-47
2022/03/22 04:39:36;;;;;;;6.00;2.42;;;;;;;;;;4995282;28;20106;-47
2022/03/22 04:42:04;;;;;;;4.53;2.28;;;;;;;;;;4976993;28;20120;-46
2022/03/22 04:44:31;;;;;;;5.47;2.45;;;;;;;;;;4994917;28;20055;-47
2022/03/22 04:46:59;;;;;;;6.07;2.40;;;;;;;;;;4994961;28;20045;-45
2022/03/22 04:49:27;;;;;;;5.40;2.38;;;;;;;;;;4994390;28;20058;-46
2022/03/22 04:57:24;;;;;;;3.90;2.10;;;;;;;;;;4994321;28;20559;-46
2022/03/22 04:59:51;;;;;;;6.07;2.47;;;;;;;;;;4993078;28;20165;-45
2022/03/22 05:02:18;;;;;;;5.18;2.28;;;;;;;;;;4994530;28;20030;-45
2022/03/22 05:04:45;;;;;;;5.25;2.75;;;;;;;;;;4994245;28;20484;-46
2022/03/22 05:07:12;;;;;;;6.43;2.38;;;;;;;;;;4994637;28;20515;-46
2022/03/22 05:09:39;;;;;;;5.45;2.22;;;;;;;;;;4994057;28;20037;-47
2022/03/22 05:12:06;;;;;;;4.32;2.13;;;;;;;;;;4994334;28;20112;-45
2022/03/22 05:14:35;;;;;;;8.10;2.10;;;;;;;;;;4994022;28;20484;-45
2022/03/22 05:17:03;;;;;;;6.65;2.28;;;;;;;;;;4993398;28;20034;-48
2022/03/22 05:19:30;;;;;;;3.42;1.98;;;;;;;;;;4994565;28;20022;-46
2022/03/22 05:21:57;;;;;;;5.50;1.60;;;;;;;;;;4994020;28;20037;-47
2022/03/22 05:24:23;;;;;;;6.53;2.33;;;;;;;;;;4994327;28;20038;-45
2022/03/22 05:26:50;;;;;;;6.20;2.17;;;;;;;;;;4994077;28;20097;-45
2022/03/22 05:29:17;;;;;;;4.63;1.98;;;;;;;;;;4994042;28;20085;-46
2022/03/22 05:31:45;;;;;;;7.25;2.22;;;;;;;;;;4993581;28;20388;-47
2022/03/22 05:34:12;;;;;;;4.50;2.05;;;;;;;;;;4993931;28;20080;-45
2022/03/22 05:36:40;;;;;;;4.53;1.80;;;;;;;;;;4993921;28;20026;-46
2022/03/22 05:39:07;;;;;;;4.35;1.77;;;;;;;;;;4993897;28;20384;-46
2022/03/22 05:41:34;;;;;;;4.40;2.15;;;;;;;;;;4993594;28;20023;-45
2022/03/22 05:44:01;;;;;;;4.25;1.98;;;;;;;;;;4994037;28;20026;-46
2022/03/22 05:46:28;;;;;;;4.03;2.10;;;;;;;;;;4993605;28;20030;-46
2022/03/22 05:48:56;;;;;;;3.65;1.73;;;;;;;;;;4993648;28;20393;-45
2022/03/22 05:51:23;;;;;;;4.05;1.80;;;;;;;;;;4993247;28;20035;-45
2022/03/22 05:53:50;;;;;;;4.03;1.80;;;;;;;;;;4975530;28;20113;-46
2022/03/22 05:56:17;;;;;;;5.10;2.03;;;;;;;;;;4993881;28;20069;-45
2022/03/22 05:58:44;;;;;;;7.13;1.90;;;;;;;;;;4993145;28;20081;-46
2022/03/22 06:01:12;;;;;;;4.40;1.70;;;;;;;;;;4993422;28;20030;-45
2022/03/22 06:03:39;;;;;;;6.43;2.33;;;;;;;;;;4993416;28;20496;-47
2022/03/22 06:06:06;;;;;;;7.07;1.98;;;;;;;;;;4993299;28;20463;-47
2022/03/22 06:08:34;;;;;;;3.67;1.92;;;;;;;;;;4993294;28;20018;-45
2022/03/22 06:11:01;;;;;;;5.75;2.30;;;;;;;;;;4993225;28;20034;-46
2022/03/22 06:13:28;;;;;;;4.07;2.10;;;;;;;;;;4992958;28;20061;-45
2022/03/22 06:15:55;;;;;;;5.13;1.60;;;;;;;;;;4993235;28;20018;-46
2022/03/22 06:18:22;;;;;;;3.97;2.13;;;;;;;;;;4992685;28;20054;-45
2022/03/22 06:20:49;;;;;;;4.00;1.95;;;;;;;;;;4992663;28;20109;-49
2022/03/22 06:23:17;;;;;;;3.55;1.50;;;;;;;;;;4993359;28;20026;-47
2022/03/22 06:25:44;;;;;;;3.05;1.58;;;;;;;;;;4992887;28;20037;-47
2022/03/22 06:28:14;;;;;;;3.72;1.80;;;;;;;;;;4993116;28;20461;-45
2022/03/22 06:33:28;;;;;;;3.67;1.80;;;;;;;;;;5007680;28;20049;-43
2022/03/22 06:35:55;;;;;;;3.28;1.55;;;;;;;;;;5012291;28;20029;-45
2022/03/22 06:38:22;;;;;;;3.70;1.60;;;;;;;;;;5012786;28;20034;-46
2022/03/22 06:40:50;;;;;;;3.63;1.85;;;;;;;;;;5012591;28;20026;-45
2022/03/22 06:43:18;;;;;;;5.72;1.83;;;;;;;;;;5012446;28;20036;-43
2022/03/22 06:45:46;;;;;;;5.20;2.22;;;;;;;;;;5012320;28;20033;-44
2022/03/22 06:48:15;;;;;;;3.08;1.60;;;;;;;;;;5012763;28;20069;-43
2022/03/22 06:50:43;;;;;;;3.30;1.67;;;;;;;;;;5011892;28;20042;-47
2022/03/22 06:53:10;;;;;;;5.03;1.80;;;;;;;;;;5012312;28;20488;-44
2022/03/22 06:55:38;;;;;;;2.45;1.50;;;;;;;;;;5012509;28;20499;-45
2022/03/22 06:58:06;;;;;;;3.88;1.55;;;;;;;;;;5012062;28;20018;-45
2022/03/22 07:00:34;;;;;;;3.50;1.48;;;;;;;;;;5011536;28;20038;-44
2022/03/22 07:03:01;;;;;;;3.35;1.60;;;;;;;;;;5012465;28;20087;-43
2022/03/22 07:05:29;;;;;;;5.13;1.80;;;;;;;;;;4994849;28;20129;-45
2022/03/22 07:07:56;;;;;;;3.33;1.70;;;;;;;;;;5011393;28;20377;-43
2022/03/22 07:10:23;;;;;;;3.25;1.70;;;;;;;;;;5012432;28;20540;-43
2022/03/22 07:12:54;;;;;;;3.92;1.55;;;;;;;;;;5011934;28;20061;-46
2022/03/22 07:15:23;;;;;;;3.08;1.63;;;;;;;;;;5012339;28;20438;-48
2022/03/22 07:17:52;;;;;;;4.47;1.90;;;;;;;;;;5012290;28;20073;-43
2022/03/22 07:20:20;;;;;;;3.40;1.58;;;;;;;;;;5011770;28;20034;-44
2022/03/22 07:22:50;;;;;;;3.08;1.35;;;;;;;;;;5012341;28;20507;-45
2022/03/22 07:25:17;;;;;;;5.28;1.65;;;;;;;;;;5015817;28;20488;-45
2022/03/22 07:27:44;;;;;;;3.65;1.65;;;;;;;;;;5016206;28;20084;-43
2022/03/22 07:30:12;;;;;;;3.28;1.52;;;;;;;;;;5016105;28;20109;-44
2022/03/22 07:32:40;;;;;;;3.90;1.70;;;;;;;;;;5015320;28;20060;-43
2022/03/22 07:35:07;;;;;;;6.45;1.67;;;;;;;;;;5015634;28;20194;-43
2022/03/22 07:37:35;;;;;;;4.00;1.60;;;;;;;;;;5016202;28;20026;-44
2022/03/22 07:40:04;;;;;;;4.25;1.73;;;;;;;;;;5015769;28;20104;-43
2022/03/22 07:42:32;;;;;;;3.15;1.33;;;;;;;;;;5015781;28;20028;-43
2022/03/22 07:45:01;;;;;;;4.38;1.77;;;;;;;;;;5015455;28;20026;-46
2022/03/22 07:47:29;;;;;;;3.38;1.40;;;;;;;;;;5015910;28;20480;-44
2022/03/22 07:55:28;;;;;;;3.95;1.33;;;;;;;;;;5015409;28;20407;-47
2022/03/22 07:57:57;;;;;;;4.25;1.42;;;;;;;;;;5015113;28;20061;-43
2022/03/22 08:00:25;;;;;;;2.50;1.23;;;;;;;;;;5015642;28;20026;-45
2022/03/22 08:02:52;;;;;;;4.55;1.40;;;;;;;;;;5015357;28;20385;-45
2022/03/22 08:05:19;;;;;;;2.95;1.25;;;;;;;;;;5015351;28;20026;-44
2022/03/22 08:07:46;;;;;;;3.83;1.50;;;;;;;;;;5015472;28;20080;-44
2022/03/22 08:10:13;;;;;;;4.13;1.70;;;;;;;;;;4997447;28;20037;-43
2022/03/22 08:12:41;;;;;;;3.60;1.80;;;;;;;;;;5015124;28;20092;-43
2022/03/22 08:15:08;;;;;;;3.90;1.30;;;;;;;;;;5015246;28;20034;-44
2022/03/22 08:17:39;;;;;;;2.83;1.50;;;;;;;;;;5015001;28;20030;-43
2022/03/22 08:20:09;;;;;;;3.22;1.50;;;;;;;;;;5014949;28;20057;-45
2022/03/22 08:22:46;;;;;;;2.75;1.30;;;;;;;;;;5015268;28;20021;-43
2022/03/22 08:25:13;;;;;;;2.65;1.40;;;;;;;;;;5015106;28;20491;-44
2022/03/22 08:27:40;;;;;;;3.42;1.50;;;;;;;;;;5014915;28;20435;-43
2022/03/22 08:30:09;;;;;;;1.95;1.20;;;;;;;;;;5015187;28;20088;-43
2022/03/22 08:32:36;;;;;;;2.85;1.40;;;;;;;;;;5013880;28;20081;-43
2022/03/22 08:35:03;;;;;;;6.00;2.15;;;;;;;;;;5014814;28;20061;-49
2022/03/22 08:37:30;;;;;;;3.50;1.40;;;;;;;;;;5014593;28;20029;-43
2022/03/22 08:39:57;;;;;;;3.25;1.25;;;;;;;;;;5014722;28;20113;-45
2022/03/22 08:42:26;;;;;;;2.40;1.42;;;;;;;;;;5014686;28;20088;-43
2022/03/22 08:44:53;;;;;;;3.13;1.45;;;;;;;;;;5014353;28;20038;-44
2022/03/22 08:47:20;;;;;;;3.03;1.30;;;;;;;;;;5014452;28;20510;-44
2022/03/22 08:49:48;;;;;;;3.30;1.33;;;;;;;;;;5013897;28;20061;-43
2022/03/22 08:52:15;;;;;;;3.17;1.45;;;;;;;;;;5014698;28;20038;-43
2022/03/22 08:54:42;;;;;;;2.83;1.85;;;;;;;;;;5014129;28;20117;-43
2022/03/22 08:57:11;;;;;;;2.13;1.17;;;;;;;;;;5014672;28;20029;-44
2022/03/22 08:59:38;;;;;;;3.10;1.42;;;;;;;;;;5013824;28;20034;-43
2022/03/22 09:02:05;;;;;;;6.05;1.52;;;;;;;;;;5014507;28;20033;-44
2022/03/22 09:07:17;;;;;;;3.50;1.55;;;;;;;;;;5014346;28;20407;-44
2022/03/22 09:09:44;;;;;;;2.50;1.13;;;;;;;;;;5014063;28;20030;-45
2022/03/22 09:12:12;;;;;;;6.18;1.75;;;;;;;;;;5013700;28;20025;-44
2022/03/22 09:14:39;;;;;;;2.75;1.25;;;;;;;;;;5013633;28;20033;-44
2022/03/22 09:17:07;;;;;;;3.30;1.60;;;;;;;;;;5014239;28;20121;-43
2022/03/22 09:19:37;;;;;;;3.97;1.60;;;;;;;;;;5014094;28;20040;-43
2022/03/22 09:22:10;;;;;;;4.13;1.85;;;;;;;;;;5013586;28;20030;-45
2022/03/22 09:24:37;;;;;;;3.40;1.55;;;;;;;;;;5013289;28;20124;-42
2022/03/22 09:27:04;;;;;;;2.53;1.38;;;;;;;;;;5014160;28;20479;-46
2022/03/22 09:29:31;;;;;;;3.95;1.90;;;;;;;;;;5013311;28;20037;-43
2022/03/22 09:31:58;;;;;;;3.58;1.50;;;;;;;;;;5012788;28;20184;-50
2022/03/22 09:34:25;;;;;;;4.22;1.40;;;;;;;;;;5013159;28;20033;-46
2022/03/22 09:36:53;;;;;;;4.75;1.70;;;;;;;;;;5012698;28;20464;-45
2022/03/22 09:39:20;;;;;;;3.08;1.73;;;;;;;;;;5013485;28;20377;-43
2022/03/22 09:41:51;;;;;;;4.15;1.33;;;;;;;;;;5013080;28;20034;-44
2022/03/22 09:44:21;;;;;;;5.22;1.92;;;;;;;;;;5013993;28;20040;-45
2022/03/22 09:46:51;;;;;;;2.63;1.50;;;;;;;;;;5012288;28;20494;-43
2022/03/22 09:49:18;;;;;;;4.43;1.90;;;;;;;;;;5013635;28;20084;-46
2022/03/22 09:51:46;;;;;;;3.67;1.80;;;;;;;;;;5012959;28;20510;-45
2022/03/22 09:54:13;;;;;;;3.13;1.60;;;;;;;;;;5013366;28;20041;-43
2022/03/22 09:56:44;;;;;;;4.72;1.80;;;;;;;;;;5013093;28;20041;-44
2022/03/22 09:59:11;;;;;;;4.28;1.73;;;;;;;;;;5012723;28;20034;-44
2022/03/22 10:01:38;;;;;;;7.50;1.80;;;;;;;;;;5013332;28;20492;-55
2022/03/22 10:04:12;;;;;;;4.85;1.92;;;;;;;;;;4995403;28;20608;-48
2022/03/22 10:06:45;;;;;;;6.00;1.90;;;;;;;;;;5012939;28;20382;-44
2022/03/22 10:09:12;;;;;;;8.52;1.90;;;;;;;;;;5012390;28;20040;-51
2022/03/22 10:11:40;;;;;;;3.88;1.42;;;;;;;;;;5012673;28;20065;-45
2022/03/22 10:14:11;;;;;;;6.65;1.85;;;;;;;;;;4995094;28;20539;-48
2022/03/22 10:16:51;;;;;;;6.35;2.30;;;;;;;;;;5012497;28;20037;-45
2022/03/22 10:22:33;;;;;;;7.57;2.25;;;;;;;;;;4997091;28;20089;-44
2022/03/22 10:25:03;;;;;;;9.57;2.30;;;;;;;;;;5012809;28;20034;-43
2022/03/22 10:27:34;;;;;;;9.55;2.25;;;;;;;;;;5012500;28;20026;-43
2022/03/22 10:30:02;;;;;;;9.73;2.50;;;;;;;;;;5013040;28;20423;-42
2022/03/22 10:32:32;;;;;;;11.05;2.50;;;;;;;;;;5011940;28;20416;-46
2022/03/22 10:35:10;;;;;;;10.60;2.22;;;;;;;;;;5012652;28;20034;-43
2022/03/22 10:37:37;;;;;;;9.05;2.55;;;;;;;;;;5012557;28;20411;-43
2022/03/22 10:40:04;;;;;;;17.80;2.92;;;;;;;;;;5012451;28;20045;-42
2022/03/22 10:42:33;;;;;;;12.73;2.33;;;;;;;;;;5012340;28;20018;-42
2022/03/22 10:45:00;;;;;;;20.10;3.42;;;;;;;;;;5011711;28;20030;-45
2022/03/22 10:47:27;;;;;;;12.00;2.95;;;;;;;;;;5012710;28;20029;-43
2022/03/22 10:50:01;;;;;;;10.27;2.88;;;;;;;;;;5012090;28;20022;-42
2022/03/22 10:52:29;;;;;;;15.93;3.20;;;;;;;;;;5012592;28;20491;-44
2022/03/22 10:54:56;;;;;;;10.25;2.83;;;;;;;;;;5011532;28;20037;-42
2022/03/22 10:57:32;;;;;;;9.73;2.92;;;;;;;;;;5012828;28;20420;-44
2022/03/22 11:00:08;;;;;;;11.50;2.80;;;;;;;;;;5012397;28;20101;-43
2022/03/22 11:02:38;;;;;;;12.73;2.90;;;;;;;;;;5012502;28;20088;-42
2022/03/22 11:05:06;;;;;;;11.80;2.42;;;;;;;;;;5011623;28;20101;-43
2022/03/22 11:07:37;;;;;;;12.40;3.25;;;;;;;;;;5012514;28;20030;-41
2022/03/22 11:10:04;;;;;;;12.73;2.97;;;;;;;;;;5011013;28;20443;-42
2022/03/22 11:12:33;;;;;;;16.70;3.63;;;;;;;;;;5012274;28;20030;-42
2022/03/22 11:15:00;;;;;;;13.10;3.08;;;;;;;;;;5012304;28;20022;-45
2022/03/22 11:17:29;;;;;;;70.85;5.32;;;;;;;;;;5011585;28;20022;-48
2022/03/22 11:20:57;;;;;;;47.83;4.90;;;;;;;;;;5130186;27;20154;-45
2022/03/22 11:23:25;;;;;;;35.63;4.32;;;;;;;;;;5108776;28;20024;-44
2022/03/22 11:25:52;;;;;;;67.32;7.18;;;;;;;;;;5109704;28;20443;-45
2022/03/22 11:28:21;;;;;;;110.00;8.55;;;;;;;;;;5108558;28;20026;-45
2022/03/22 11:30:49;;;;;;;132.50;7.30;;;;;;;;;;5109531;28;20093;-45
2022/03/22 11:36:13;;;;;;;67.97;8.70;;;;;;;;;;5109673;28;20042;-44
2022/03/22 11:38:48;;;;;;;168.63;18.42;;;;;;;;;;5109364;28;20060;-45
2022/03/22 11:44:18;;;;;;;208.18;19.42;;;;;;;;;;5109642;28;20165;-47
2022/03/22 11:46:47;;;;;;;108.55;12.07;;;;;;;;;;5108495;28;20477;-47
2022/03/22 11:49:18;;;;;;;153.13;14.93;;;;;;;;;;5109162;28;20136;-47
2022/03/22 11:51:49;;;;;;;127.73;13.07;;;;;;;;;;5108451;28;20032;-46
2022/03/22 11:54:16;;;;;;;109.32;11.13;;;;;;;;;;5108759;28;20039;-46
2022/03/22 11:57:09;;;;;;;66.85;8.68;;;;;;;;;;5108939;28;20080;-47
2022/03/22 11:59:41;;;;;;;82.97;9.75;;;;;;;;;;5103928;28;20048;-47
2022/03/22 12:02:15;;;;;;;63.92;10.88;;;;;;;;;;5107011;28;20070;-47
2022/03/22 12:04:50;;;;;;;65.88;8.93;;;;;;;;;;5108838;28;20393;-46
2022/03/22 12:07:22;;;;;;;39.40;6.95;;;;;;;;;;5108010;28;20024;-47
2022/03/22 12:09:49;;;;;;;54.70;6.97;;;;;;;;;;5108870;28;20070;-47
2022/03/22 12:12:16;;;;;;;57.25;6.93;;;;;;;;;;5108281;28;20031;-47
2022/03/22 12:14:48;;;;;;;33.17;5.15;;;;;;;;;;5108392;28;20028;-47
2022/03/22 12:17:15;;;;;;;35.47;5.43;;;;;;;;;;5108259;28;20027;-47
2022/03/22 12:19:42;;;;;;;28.83;3.95;;;;;;;;;;5107896;28;20093;-47
2022/03/22 12:22:10;;;;;;;23.40;4.35;;;;;;;;;;5108208;28;20031;-47
2022/03/22 12:24:37;;;;;;;58.03;6.18;;;;;;;;;;5108092;28;20032;-47
2022/03/22 12:27:05;;;;;;;25.20;4.28;;;;;;;;;;5108614;28;20370;-47
2022/03/22 12:29:38;;;;;;;96.75;9.43;;;;;;;;;;5106595;28;20445;-47
2022/03/22 12:32:07;;;;;;;;;;;;;;;;;;5094173;28;20488;-47
2022/03/22 12:34:37;;;;;;;27.42;3.60;;;;;;;;;;5094502;28;19915;-47
2022/03/22 12:37:08;;;;;;;21.10;3.30;;;;;;;;;;5093463;28;20514;-47
2022/03/22 12:39:36;;;;;;;18.63;3.33;;;;;;;;;;5093903;28;20036;-47
2022/03/22 12:42:03;;;;;;;20.55;2.95;;;;;;;;;;5094124;28;20438;-47
2022/03/22 12:44:31;;;;;;;23.08;2.92;;;;;;;;;;5094072;28;20026;-48
2022/03/22 12:46:58;;;;;;;17.25;3.10;;;;;;;;;;5094471;28;20122;-47
2022/03/22 12:49:26;;;;;;;25.60;3.50;;;;;;;;;;5093827;28;20107;-47
2022/03/22 12:51:53;;;;;;;77.35;7.97;;;;;;;;;;5094506;28;20032;-48
2022/03/22 12:54:21;;;;;;;28.23;3.72;;;;;;;;;;5093778;28;20508;-48
2022/03/22 12:56:49;;;;;;;18.20;2.10;;;;;;;;;;5094168;28;20056;-47
2022/03/22 12:59:22;;;;;;;31.85;4.50;;;;;;;;;;5094264;28;20097;-48
2022/03/22 13:01:56;;;;;;;26.85;2.63;;;;;;;;;;5093227;28;20063;-48
2022/03/22 13:04:25;;;;;;;25.42;2.95;;;;;;;;;;5093684;28;20032;-48
2022/03/22 13:06:59;;;;;;;64.75;5.78;;;;;;;;;;5093863;28;20024;-47
2022/03/22 13:12:13;;;;;;;117.47;11.05;;;;;;;;;;5094276;28;20086;-47
2022/03/22 13:17:28;;;;;;;25.80;3.22;;;;;;;;;;5094025;28;20039;-47
2022/03/22 13:19:55;;;;;;;23.45;3.42;;;;;;;;;;5092968;28;20046;-47
2022/03/22 13:22:25;;;;;;;34.55;3.35;;;;;;;;;;5091861;28;20971;-48
2022/03/22 13:25:02;;;;;;;14.70;1.85;;;;;;;;;;5091601;28;20825;-46
2022/03/22 13:27:29;;;;;;;8.77;1.40;;;;;;;;;;5092564;28;20394;-46
2022/03/22 13:29:56;;;;;;;23.17;2.17;;;;;;;;;;5093378;28;20036;-46
2022/03/22 13:32:33;;;;;;;31.63;3.38;;;;;;;;;;5092884;28;20016;-46
2022/03/22 13:35:05;;;;;;;14.73;1.75;;;;;;;;;;5092790;28;20032;-46
2022/03/22 13:37:43;;;;;;;8.32;1.20;;;;;;;;;;5093374;28;20024;-46
2022/03/22 13:40:11;;;;;;;5.05;1.00;;;;;;;;;;5092153;28;20036;-46
2022/03/22 13:42:38;;;;;;;14.07;1.85;;;;;;;;;;5092138;28;20034;-46
2022/03/22 13:45:10;;;;;;;11.98;1.70;;;;;;;;;;5093018;28;20042;-46
2022/03/22 13:47:44;;;;;;;52.17;5.88;;;;;;;;;;5092232;28;20481;-46
2022/03/22 13:50:19;;;;;;;38.33;4.80;;;;;;;;;;5092304;28;20047;-46
2022/03/22 13:52:59;;;;;;;37.28;3.72;;;;;;;;;;5091586;28;20384;-46
2022/03/22 13:55:29;;;;;;;22.13;1.55;;;;;;;;;;5092382;28;20089;-46
2022/03/22 13:57:57;;;;;;;7.85;1.02;;;;;;;;;;5092414;28;20035;-46
2022/03/22 14:00:24;;;;;;;9.65;0.95;;;;;;;;;;5091919;28;20393;-46
2022/03/22 14:02:52;;;;;;;79.45;7.05;;;;;;;;;;5092245;28;20366;-46
2022/03/22 14:05:19;;;;;;;20.25;2.63;;;;;;;;;;5092147;28;20101;-46
2022/03/22 14:07:55;;;;;;;39.42;3.05;;;;;;;;;;5092068;28;20796;-41
2022/03/22 14:10:22;;;;;;;31.98;3.10;;;;;;;;;;5091584;28;20066;-40
2022/03/22 14:12:49;;;;;;;29.23;3.13;;;;;;;;;;5092633;28;20028;-43
2022/03/22 14:15:17;;;;;;;23.67;2.92;;;;;;;;;;5092143;28;20086;-39
2022/03/22 14:17:45;;;;;;;23.85;2.95;;;;;;;;;;5091484;28;20024;-41
2022/03/22 14:20:17;;;;;;;21.60;2.15;;;;;;;;;;5091884;28;20060;-41
2022/03/22 14:22:46;;;;;;;25.23;2.75;;;;;;;;;;5092063;28;20024;-41
2022/03/22 14:25:14;;;;;;;34.30;4.65;;;;;;;;;;5091424;28;20382;-42
2022/03/22 14:27:41;;;;;;;47.90;5.75;;;;;;;;;;5091604;28;20154;-40
2022/03/22 14:30:14;;;;;;;73.32;6.47;;;;;;;;;;5092335;28;20077;-40
2022/03/22 14:32:40;;;;;;;;;;;;;;;;;;5091734;28;20036;-40
2022/03/22 14:37:53;;;;;;;52.53;5.22;;;;;;;;;;5092099;28;20071;-40
2022/03/22 14:40:20;;;;;;;36.95;3.65;;;;;;;;;;5090983;28;20122;-41
2022/03/22 14:42:49;;;;;;;31.02;4.50;;;;;;;;;;5091950;28;20056;-40
2022/03/22 14:45:16;;;;;;;24.73;3.17;;;;;;;;;;5091731;28;20088;-41
2022/03/22 14:47:43;;;;;;;29.25;3.00;;;;;;;;;;5091656;28;20035;-40
2022/03/22 14:50:10;;;;;;;25.85;3.30;;;;;;;;;;5091022;28;20043;-43
2022/03/22 14:55:22;;;;;;;18.60;3.30;;;;;;;;;;5091010;28;20099;-40
2022/03/22 15:00:34;;;;;;;29.77;5.53;;;;;;;;;;5091030;28;20035;-40
2022/03/22 15:03:06;;;;;;;25.33;5.03;;;;;;;;;;5090631;28;20024;-43
2022/03/22 15:05:39;;;;;;;21.17;3.53;;;;;;;;;;5091473;28;20105;-41
2022/03/22 15:08:09;;;;;;;26.67;5.68;;;;;;;;;;5091372;28;20089;-40
2022/03/22 15:10:40;;;;;;;28.90;5.13;;;;;;;;;;5090904;28;20036;-40
2022/03/22 15:13:10;;;;;;;29.75;5.28;;;;;;;;;;5090734;28;20027;-40
2022/03/22 15:15:38;;;;;;;35.55;6.13;;;;;;;;;;5090898;28;20084;-41
2022/03/22 15:18:07;;;;;;;38.17;5.60;;;;;;;;;;5091143;28;20035;-41
2022/03/22 15:20:35;;;;;;;39.67;5.88;;;;;;;;;;5090602;28;20052;-41
2022/03/22 15:23:03;;;;;;;35.60;5.43;;;;;;;;;;5091481;28;20028;-41
2022/03/22 15:25:31;;;;;;;32.20;6.00;;;;;;;;;;5090135;28;20069;-41
2022/03/22 15:27:58;;;;;;;30.10;5.15;;;;;;;;;;5091212;28;20024;-45
2022/03/22 15:30:25;;;;;;;43.45;5.80;;;;;;;;;;5090418;28;20035;-41
2022/03/22 15:32:52;;;;;;;28.27;4.85;;;;;;;;;;5091191;28;20579;-41
2022/03/22 15:35:24;;;;;;;38.00;4.43;;;;;;;;;;5090989;28;20450;-47
2022/03/22 15:37:52;;;;;;;25.92;4.20;;;;;;;;;;5090329;28;20109;-40